createdAt,value
2022-12-15T00:02:35.537Z,25.50
2022-12-15T00:05:21.079Z,27.27
2022-12-15T00:08:07.894Z,28.15
2022-12-15T00:10:53.773Z,25.30
2022-12-15T00:13:39.252Z,25.50
2022-12-15T00:16:25.064Z,30.58
2022-12-15T00:19:10.343Z,28.80
2022-12-15T00:21:55.456Z,24.98
2022-12-15T00:24:42.080Z,25.58
2022-12-15T00:27:27.604Z,23.90
2022-12-15T00:30:12.927Z,24.67
2022-12-15T00:32:58.287Z,26.25
2022-12-15T00:35:43.648Z,26.30
2022-12-15T00:38:31.628Z,27.02
2022-12-15T00:41:00.942Z,27.25
2022-12-15T00:43:30.206Z,29.95
2022-12-15T00:46:16.372Z,26.42
2022-12-15T00:48:45.001Z,25.02
2022-12-15T00:51:12.695Z,24.40
2022-12-15T00:53:58.392Z,27.67
2022-12-15T00:56:45.515Z,26.63
2022-12-15T00:59:32.483Z,24.60
2022-12-15T01:02:18.050Z,24.70
2022-12-15T01:05:03.300Z,23.85
2022-12-15T01:07:49.871Z,27.83
2022-12-15T01:10:36.025Z,26.15
2022-12-15T01:13:23.551Z,24.13
2022-12-15T01:16:08.929Z,21.98
2022-12-15T01:18:54.082Z,27.15
2022-12-15T01:21:24.710Z,23.67
2022-12-15T01:23:53.127Z,22.02
2022-12-15T01:26:21.140Z,22.50
2022-12-15T01:28:50.274Z,21.95
2022-12-15T01:31:18.051Z,24.88
2022-12-15T01:33:45.830Z,22.75
2022-12-15T01:36:14.242Z,25.85
2022-12-15T01:38:42.692Z,24.30
2022-12-15T01:41:12.359Z,22.35
2022-12-15T01:43:41.629Z,23.85
2022-12-15T01:46:12.616Z,23.02
2022-12-15T01:48:44.010Z,23.23
2022-12-15T01:51:17.240Z,25.50
2022-12-15T01:53:52.282Z,20.38
2022-12-15T01:56:21.092Z,24.75
2022-12-15T01:58:50.943Z,24.75
2022-12-15T02:01:20.165Z,23.77
2022-12-15T02:03:49.251Z,24.88
2022-12-15T02:06:18.015Z,24.35
2022-12-15T02:08:48.431Z,23.83
2022-12-15T02:11:37.377Z,20.63
2022-12-15T02:14:07.511Z,24.73
2022-12-15T02:16:50.490Z,23.80
2022-12-15T02:19:42.820Z,21.40
2022-12-15T02:22:25.394Z,21.73
2022-12-15T02:25:11.396Z,23.65
2022-12-15T02:27:52.120Z,22.40
2022-12-15T02:30:32.596Z,23.48
2022-12-15T02:33:07.703Z,23.00
2022-12-15T02:35:47.380Z,20.05
2022-12-15T02:38:15.226Z,23.63
2022-12-15T02:40:43.054Z,24.33
2022-12-15T02:43:11.359Z,21.27
2022-12-15T02:45:52.751Z,22.98
2022-12-15T02:48:32.137Z,23.75
2022-12-15T02:51:14.313Z,22.15
2022-12-15T02:53:56.816Z,23.35
2022-12-15T02:56:33.533Z,21.52
2022-12-15T02:59:11.082Z,22.63
2022-12-15T03:04:13.820Z,20.35
2022-12-15T03:06:41.635Z,21.90
2022-12-15T03:09:09.469Z,25.55
2022-12-15T03:11:38.148Z,21.40
2022-12-15T03:14:05.930Z,25.38
2022-12-15T03:16:33.799Z,22.85
2022-12-15T03:19:02.963Z,19.98
2022-12-15T03:21:30.880Z,21.27
2022-12-15T03:23:58.641Z,24.48
2022-12-15T03:26:26.420Z,23.45
2022-12-15T03:28:54.132Z,21.92
2022-12-15T03:31:21.906Z,24.45
2022-12-15T03:33:49.745Z,21.25
2022-12-15T03:36:19.103Z,19.85
2022-12-15T03:38:46.841Z,27.27
2022-12-15T03:41:14.541Z,26.65
2022-12-15T03:43:42.315Z,26.27
2022-12-15T03:46:10.120Z,27.80
2022-12-15T03:48:38.084Z,26.63
2022-12-15T03:51:05.864Z,26.08
2022-12-15T03:53:35.055Z,25.75
2022-12-15T03:56:02.824Z,27.65
2022-12-15T03:58:30.587Z,28.10
2022-12-15T04:00:58.397Z,25.17
2022-12-15T04:03:26.272Z,30.27
2022-12-15T04:05:54.075Z,21.70
2022-12-15T04:08:26.662Z,23.05
2022-12-15T04:10:55.826Z,24.80
2022-12-15T04:13:23.550Z,24.92
2022-12-15T04:15:51.286Z,23.30
2022-12-15T04:18:19.151Z,23.48
2022-12-15T04:20:45.985Z,24.38
2022-12-15T04:23:18.116Z,27.20
2022-12-15T04:26:03.324Z,26.23
2022-12-15T04:28:50.011Z,24.27
2022-12-15T04:31:37.768Z,22.92
2022-12-15T04:34:26.595Z,20.63
2022-12-15T04:37:12.636Z,21.75
2022-12-15T04:40:00.279Z,22.85
2022-12-15T04:42:45.695Z,20.95
2022-12-15T04:45:34.084Z,22.35
2022-12-15T04:48:19.444Z,21.50
2022-12-15T04:51:04.878Z,24.45
2022-12-15T04:53:52.259Z,22.75
2022-12-15T04:56:37.534Z,24.90
2022-12-15T04:59:23.899Z,23.40
2022-12-15T05:02:10.389Z,23.67
2022-12-15T05:04:55.579Z,24.55
2022-12-15T05:07:43.200Z,20.02
2022-12-15T05:10:28.562Z,23.77
2022-12-15T05:13:13.997Z,25.02
2022-12-15T05:15:59.598Z,23.70
2022-12-15T05:18:46.017Z,23.25
2022-12-15T05:21:31.558Z,26.90
2022-12-15T05:24:17.089Z,21.75
2022-12-15T05:27:02.395Z,24.52
2022-12-15T05:29:47.807Z,27.10
2022-12-15T05:32:15.604Z,23.42
2022-12-15T05:34:44.697Z,24.48
2022-12-15T05:37:12.475Z,23.25
2022-12-15T05:39:40.222Z,26.00
2022-12-15T05:42:08.025Z,24.77
2022-12-15T05:44:35.825Z,25.23
2022-12-15T05:47:04.917Z,26.50
2022-12-15T05:49:33.351Z,25.77
2022-12-15T05:52:02.488Z,23.90
2022-12-15T05:54:30.287Z,22.25
2022-12-15T05:56:58.067Z,26.17
2022-12-15T05:59:25.899Z,21.70
2022-12-15T06:01:53.729Z,27.13
2022-12-15T06:04:24.071Z,30.23
2022-12-15T06:06:51.872Z,28.25
2022-12-15T06:09:20.971Z,25.88
2022-12-15T06:11:48.802Z,25.77
2022-12-15T06:14:16.584Z,23.90
2022-12-15T06:16:50.291Z,27.83
2022-12-15T06:19:19.792Z,24.27
2022-12-15T06:21:47.550Z,27.20
2022-12-15T06:24:15.334Z,27.27
2022-12-15T06:26:44.680Z,26.60
2022-12-15T06:29:14.377Z,24.73
2022-12-15T06:31:43.681Z,26.05
2022-12-15T06:34:14.012Z,22.25
2022-12-15T06:36:42.338Z,24.40
2022-12-15T06:39:12.783Z,22.85
2022-12-15T06:41:41.320Z,25.73
2022-12-15T06:44:14.467Z,27.73
2022-12-15T06:46:42.892Z,24.15
2022-12-15T06:49:10.772Z,30.05
2022-12-15T06:51:38.608Z,24.23
2022-12-15T06:54:06.478Z,30.38
2022-12-15T06:56:37.073Z,25.27
2022-12-15T06:59:06.773Z,28.67
2022-12-15T07:01:36.315Z,27.10
2022-12-15T07:04:05.758Z,28.30
2022-12-15T07:06:37.241Z,24.05
2022-12-15T07:09:07.181Z,23.60
2022-12-15T07:11:35.244Z,24.38
2022-12-15T07:14:03.106Z,22.83
2022-12-15T07:16:31.969Z,27.73
2022-12-15T07:19:01.068Z,23.73
2022-12-15T07:21:28.868Z,27.83
2022-12-15T07:23:57.528Z,25.02
2022-12-15T07:26:26.416Z,29.75
2022-12-15T07:28:54.608Z,29.63
2022-12-15T07:31:23.617Z,28.15
2022-12-15T07:33:54.372Z,29.52
2022-12-15T07:36:23.609Z,30.85
2022-12-15T07:38:52.125Z,25.38
2022-12-15T07:41:21.107Z,25.23
2022-12-15T07:43:48.954Z,24.88
2022-12-15T07:46:18.099Z,25.00
2022-12-15T07:48:50.204Z,28.30
2022-12-15T07:51:20.564Z,25.58
2022-12-15T07:53:50.994Z,25.80
2022-12-15T07:56:20.406Z,26.58
2022-12-15T07:58:48.451Z,25.08
2022-12-15T08:01:17.264Z,28.42
2022-12-15T08:03:45.886Z,26.25
2022-12-15T08:06:15.396Z,26.27
2022-12-15T08:08:45.166Z,27.35
2022-12-15T08:11:22.500Z,28.38
2022-12-15T08:16:39.426Z,29.23
2022-12-15T08:19:08.763Z,29.25
2022-12-15T08:21:36.480Z,27.77
2022-12-15T08:24:04.371Z,31.52
2022-12-15T08:26:33.489Z,28.73
2022-12-15T08:29:40.361Z,31.80
2022-12-15T08:31:52.511Z,37.63
2022-12-15T08:34:20.735Z,27.77
2022-12-15T08:36:48.455Z,37.10
2022-12-15T08:39:16.414Z,35.47
2022-12-15T08:41:45.752Z,33.50
2022-12-15T08:44:13.532Z,34.28
2022-12-15T08:46:41.310Z,42.55
2022-12-15T08:49:09.781Z,33.35
2022-12-15T08:51:37.651Z,39.78
2022-12-15T08:54:05.442Z,41.75
2022-12-15T08:56:33.226Z,42.60
2022-12-15T08:59:03.195Z,44.85
2022-12-15T09:01:33.119Z,38.13
2022-12-15T09:04:01.552Z,34.13
2022-12-15T09:06:31.465Z,34.80
2022-12-15T09:09:02.171Z,34.47
2022-12-15T09:11:30.920Z,38.83
2022-12-15T09:13:59.174Z,34.20
2022-12-15T09:16:28.725Z,35.25
2022-12-15T09:18:58.716Z,43.22
2022-12-15T09:21:28.988Z,35.88
2022-12-15T09:24:00.512Z,42.47
2022-12-15T09:26:30.601Z,36.45
2022-12-15T09:28:58.826Z,40.00
2022-12-15T09:31:30.813Z,39.05
2022-12-15T09:34:00.309Z,41.13
2022-12-15T09:36:30.308Z,39.63
2022-12-15T09:38:58.098Z,37.05
2022-12-15T09:41:28.265Z,34.80
2022-12-15T09:43:59.889Z,32.53
2022-12-15T09:46:41.142Z,36.25
2022-12-15T09:49:14.521Z,34.20
2022-12-15T09:51:49.272Z,33.80
2022-12-15T09:54:19.188Z,35.30
2022-12-15T09:56:54.196Z,34.50
2022-12-15T09:59:30.107Z,31.35
2022-12-15T10:02:17.973Z,30.13
2022-12-15T10:04:57.066Z,31.23
2022-12-15T10:07:31.086Z,30.00
2022-12-15T10:09:59.152Z,31.73
2022-12-15T10:12:34.223Z,33.03
2022-12-15T10:15:13.564Z,30.55
2022-12-15T10:17:50.285Z,31.33
2022-12-15T10:20:20.774Z,32.45
2022-12-15T10:22:50.475Z,29.60
2022-12-15T10:25:29.349Z,28.35
2022-12-15T10:28:18.935Z,31.00
2022-12-15T10:30:53.142Z,31.13
2022-12-15T10:33:25.017Z,28.98
2022-12-15T10:35:54.667Z,29.88
2022-12-15T10:38:31.687Z,29.52
2022-12-15T10:41:02.356Z,31.90
2022-12-15T10:43:34.473Z,32.60
2022-12-15T10:46:07.714Z,31.15
2022-12-15T10:48:37.681Z,29.70
2022-12-15T10:51:27.326Z,29.60
2022-12-15T10:54:04.534Z,32.85
2022-12-15T10:56:34.336Z,31.65
2022-12-15T10:59:04.598Z,33.53
2022-12-15T11:01:35.593Z,30.58
2022-12-15T11:04:05.381Z,26.73
2022-12-15T11:06:36.797Z,28.77
2022-12-15T11:09:27.826Z,28.27
2022-12-15T11:12:13.446Z,26.70
2022-12-15T11:14:45.624Z,26.67
2022-12-15T11:17:18.611Z,26.67
2022-12-15T11:22:47.652Z,24.95
2022-12-15T11:25:36.217Z,26.50
2022-12-15T11:28:15.518Z,26.60
2022-12-15T11:30:46.638Z,23.42
2022-12-15T11:33:14.517Z,26.02
2022-12-15T11:35:59.364Z,30.17
2022-12-15T11:38:33.696Z,28.40
2022-12-15T11:41:09.535Z,25.65
2022-12-15T11:43:58.783Z,30.92
2022-12-15T11:46:37.828Z,28.42
2022-12-15T11:49:25.067Z,25.48
2022-12-15T11:52:03.581Z,26.67
2022-12-15T11:54:39.706Z,28.23
2022-12-15T11:57:25.897Z,26.52
2022-12-15T12:00:02.887Z,30.52
2022-12-15T12:03:02.972Z,28.40
2022-12-15T12:05:41.898Z,28.65
2022-12-15T12:08:36.762Z,28.90
2022-12-15T12:11:12.768Z,27.08
2022-12-15T12:13:52.560Z,28.70
2022-12-15T12:16:33.016Z,33.35
2022-12-15T12:19:05.928Z,30.75
2022-12-15T12:21:37.959Z,26.90
2022-12-15T12:24:17.617Z,28.73
2022-12-15T12:26:48.725Z,31.45
2022-12-15T12:29:22.415Z,28.95
2022-12-15T12:32:05.170Z,30.17
2022-12-15T12:34:47.316Z,31.77
2022-12-15T12:37:25.045Z,33.63
2022-12-15T12:39:57.269Z,31.23
2022-12-15T12:42:31.985Z,34.47
2022-12-15T12:44:59.816Z,32.58
2022-12-15T12:47:30.774Z,31.88
2022-12-15T12:50:02.259Z,30.63
2022-12-15T12:52:32.937Z,32.83
2022-12-15T12:55:09.510Z,33.38
2022-12-15T12:57:42.093Z,35.88
2022-12-15T13:00:22.082Z,35.38
2022-12-15T13:03:10.194Z,35.78
2022-12-15T13:05:39.852Z,37.53
2022-12-15T13:08:28.984Z,35.95
2022-12-15T13:11:18.142Z,36.88
2022-12-15T13:13:51.255Z,33.70
2022-12-15T13:16:25.234Z,38.55
2022-12-15T13:18:58.384Z,34.60
2022-12-15T13:21:55.296Z,33.75
2022-12-15T13:24:33.992Z,32.13
2022-12-15T13:27:15.366Z,39.95
2022-12-15T13:30:02.162Z,35.65
2022-12-15T13:32:35.374Z,35.25
2022-12-15T13:35:22.588Z,34.90
2022-12-15T13:37:53.167Z,34.22
2022-12-15T13:40:51.802Z,34.60
2022-12-15T13:43:41.259Z,35.13
2022-12-15T13:46:17.510Z,35.13
2022-12-15T13:48:49.281Z,34.53
2022-12-15T13:51:30.104Z,34.95
2022-12-15T13:54:03.012Z,35.75
2022-12-15T13:56:51.189Z,34.65
2022-12-15T13:59:39.252Z,31.90
2022-12-15T14:02:24.741Z,35.30
2022-12-15T14:05:15.206Z,36.78
2022-12-15T14:07:52.618Z,36.70
2022-12-15T14:10:24.901Z,37.42
2022-12-15T14:12:54.210Z,35.10
2022-12-15T14:15:28.189Z,40.88
2022-12-15T14:17:59.512Z,36.65
2022-12-15T14:22:55.641Z,39.97
2022-12-15T14:25:25.920Z,37.08
2022-12-15T14:27:53.670Z,39.33
2022-12-15T14:30:26.606Z,37.92
2022-12-15T14:32:58.781Z,40.25
2022-12-15T14:35:31.409Z,39.40
2022-12-15T14:38:02.016Z,38.80
2022-12-15T14:40:30.857Z,37.05
2022-12-15T14:42:59.031Z,38.42
2022-12-15T14:45:29.467Z,38.72
2022-12-15T14:50:51.290Z,40.17
2022-12-15T14:53:22.493Z,39.85
2022-12-15T14:55:51.587Z,43.65
2022-12-15T14:58:33.743Z,43.75
2022-12-15T15:01:03.317Z,37.83
2022-12-15T15:03:04.702Z,27.75
2022-12-15T15:03:38.977Z,42.17
2022-12-15T15:06:18.564Z,41.42
2022-12-15T15:08:48.924Z,38.00
2022-12-15T15:11:29.296Z,42.42
2022-12-15T15:13:59.219Z,38.92
2022-12-15T15:16:27.503Z,40.80
2022-12-15T15:18:58.102Z,45.03
2022-12-15T15:21:28.537Z,42.97
2022-12-15T15:24:01.479Z,43.03
2022-12-15T15:26:30.924Z,43.70
2022-12-15T15:28:59.511Z,43.33
2022-12-15T15:31:36.678Z,45.88
2022-12-15T15:34:09.879Z,43.55
2022-12-15T15:36:39.905Z,43.03
2022-12-15T15:39:15.154Z,45.13
2022-12-15T15:41:43.012Z,53.92
2022-12-15T15:44:13.859Z,44.67
2022-12-15T15:46:47.687Z,48.17
2022-12-15T15:49:19.039Z,47.90
2022-12-15T15:54:17.475Z,46.03
2022-12-15T15:56:45.295Z,49.58
2022-12-15T15:59:16.298Z,53.15
2022-12-15T16:01:44.277Z,45.65
2022-12-15T16:04:12.241Z,49.72
2022-12-15T16:06:47.048Z,48.00
2022-12-15T16:09:16.786Z,51.17
2022-12-15T16:11:45.672Z,51.33
2022-12-15T16:14:14.699Z,51.15
2022-12-15T16:16:42.801Z,57.67
2022-12-15T16:19:11.984Z,57.45
2022-12-15T16:21:41.863Z,52.97
2022-12-15T16:24:14.563Z,51.90
2022-12-15T16:26:47.210Z,49.22
2022-12-15T16:29:17.045Z,49.60
2022-12-15T16:31:45.827Z,48.80
2022-12-15T16:34:14.091Z,49.05
2022-12-15T16:36:43.701Z,56.90
2022-12-15T16:39:25.321Z,52.92
2022-12-15T16:41:54.693Z,48.47
2022-12-15T16:44:23.086Z,45.42
2022-12-15T16:46:51.331Z,48.35
2022-12-15T16:49:19.176Z,48.65
2022-12-15T16:51:50.338Z,50.33
2022-12-15T16:54:20.970Z,53.70
2022-12-15T16:56:48.887Z,50.67
2022-12-15T16:59:34.690Z,51.25
2022-12-15T17:02:17.804Z,50.67
2022-12-15T17:04:45.666Z,47.88
2022-12-15T17:07:20.114Z,51.40
2022-12-15T17:09:49.486Z,48.30
2022-12-15T17:12:18.689Z,55.67
2022-12-15T17:14:46.574Z,54.20
2022-12-15T17:17:15.810Z,54.65
2022-12-15T17:19:57.772Z,59.42
2022-12-15T17:22:33.366Z,60.72
2022-12-15T17:25:01.523Z,56.95
2022-12-15T17:27:30.643Z,51.17
2022-12-15T17:30:00.515Z,61.13
2022-12-15T17:32:28.342Z,51.70
2022-12-15T17:34:56.066Z,57.08
2022-12-15T17:37:26.160Z,48.22
2022-12-15T17:39:58.359Z,52.10
2022-12-15T17:42:26.179Z,55.42
2022-12-15T17:44:54.017Z,61.10
2022-12-15T17:47:24.189Z,56.70
2022-12-15T17:49:52.023Z,59.22
2022-12-15T17:52:29.904Z,65.72
2022-12-15T17:54:59.010Z,50.10
2022-12-15T17:57:26.963Z,57.83
2022-12-15T17:59:54.976Z,55.28
2022-12-15T18:02:22.803Z,54.90
2022-12-15T18:04:50.686Z,55.83
2022-12-15T18:07:20.349Z,56.72
2022-12-15T18:09:49.404Z,53.20
2022-12-15T18:12:23.312Z,61.10
2022-12-15T18:14:51.165Z,53.65
2022-12-15T18:17:18.983Z,54.22
2022-12-15T18:19:46.769Z,51.33
2022-12-15T18:22:18.116Z,48.35
2022-12-15T18:24:46.164Z,50.42
2022-12-15T18:27:23.652Z,53.00
2022-12-15T18:29:51.759Z,52.55
2022-12-15T18:32:21.400Z,51.33
2022-12-15T18:34:49.337Z,54.63
2022-12-15T18:37:18.480Z,53.65
2022-12-15T18:39:46.679Z,50.20
2022-12-15T18:42:16.093Z,55.97
2022-12-15T18:44:49.066Z,54.38
2022-12-15T18:47:18.579Z,57.28
2022-12-15T18:49:46.743Z,52.70
2022-12-15T18:52:18.282Z,48.95
2022-12-15T18:54:47.617Z,48.13
2022-12-15T18:57:27.950Z,51.15
2022-12-15T18:59:59.845Z,50.17
2022-12-15T19:02:28.399Z,54.22
2022-12-15T19:04:56.305Z,47.60
2022-12-15T19:07:24.133Z,49.45
2022-12-15T19:09:52.040Z,47.72
2022-12-15T19:12:19.892Z,51.90
2022-12-15T19:14:49.290Z,57.45
2022-12-15T19:17:37.397Z,50.75
2022-12-15T19:20:25.231Z,49.97
2022-12-15T19:22:53.646Z,48.22
2022-12-15T19:25:26.256Z,53.03
2022-12-15T19:27:59.137Z,50.20
2022-12-15T19:30:28.762Z,51.40
2022-12-15T19:32:58.264Z,51.80
2022-12-15T19:35:27.262Z,52.15
2022-12-15T19:37:58.009Z,49.53
2022-12-15T19:40:29.340Z,49.58
2022-12-15T19:42:58.253Z,56.05
2022-12-15T19:45:28.510Z,47.53
2022-12-15T19:47:58.009Z,52.67
2022-12-15T19:50:28.609Z,54.70
2022-12-15T19:52:59.008Z,51.08
2022-12-15T19:55:29.814Z,51.35
2022-12-15T19:57:57.573Z,52.28
2022-12-15T20:00:26.913Z,51.95
2022-12-15T20:02:57.017Z,51.97
2022-12-15T20:05:26.067Z,49.22
2022-12-15T20:07:54.878Z,44.35
2022-12-15T20:10:31.400Z,45.85
2022-12-15T20:13:01.077Z,54.17
2022-12-15T20:15:29.156Z,50.67
2022-12-15T20:17:58.287Z,58.42
2022-12-15T20:20:28.935Z,49.63
2022-12-15T20:22:59.799Z,47.72
2022-12-15T20:25:30.705Z,56.15
2022-12-15T20:28:00.221Z,54.13
2022-12-15T20:30:32.430Z,47.72
2022-12-15T20:33:02.132Z,53.13
2022-12-15T20:35:32.958Z,53.67
2022-12-15T20:38:01.502Z,53.45
2022-12-15T20:40:31.252Z,53.20
2022-12-15T20:42:58.978Z,53.10
2022-12-15T20:45:28.102Z,56.35
2022-12-15T20:47:57.063Z,56.90
2022-12-15T20:50:29.411Z,53.88
2022-12-15T20:52:57.333Z,52.30
2022-12-15T20:55:25.113Z,60.08
2022-12-15T20:57:52.927Z,49.97
2022-12-15T21:00:21.860Z,56.38
2022-12-15T21:02:52.053Z,53.72
2022-12-15T21:05:25.371Z,55.63
2022-12-15T21:07:55.130Z,46.03
2022-12-15T21:10:23.031Z,51.25
2022-12-15T21:12:51.724Z,50.15
2022-12-15T21:15:21.902Z,52.28
2022-12-15T21:17:57.276Z,56.67
2022-12-15T21:20:39.709Z,52.78
2022-12-15T21:23:21.267Z,51.78
2022-12-15T21:25:50.927Z,56.97
2022-12-15T21:28:19.727Z,55.83
2022-12-15T21:30:48.035Z,49.40
2022-12-15T21:33:16.042Z,51.70
2022-12-15T21:35:46.351Z,53.50
2022-12-15T21:38:28.319Z,54.72
2022-12-15T21:40:59.801Z,51.35
2022-12-15T21:45:56.255Z,52.50
2022-12-15T21:48:41.514Z,54.72
2022-12-15T21:51:15.032Z,48.90
2022-12-15T21:53:46.433Z,47.80
2022-12-15T21:58:45.957Z,52.45
2022-12-15T22:01:15.555Z,56.60
2022-12-15T22:03:45.856Z,48.90
2022-12-15T22:06:19.319Z,53.13
2022-12-15T22:08:48.874Z,56.13
2022-12-15T22:11:21.768Z,52.45
2022-12-15T22:13:52.177Z,49.63
2022-12-15T22:16:20.560Z,51.25
2022-12-15T22:18:51.146Z,52.35
2022-12-15T22:21:19.812Z,51.35
2022-12-15T22:23:48.967Z,52.85
2022-12-15T22:26:22.661Z,55.90
2022-12-15T22:28:51.050Z,58.70
2022-12-15T22:31:19.598Z,55.33
2022-12-15T22:33:47.384Z,58.15
2022-12-15T22:36:15.139Z,52.88
2022-12-15T22:38:44.950Z,52.00
2022-12-15T22:41:20.342Z,56.15
2022-12-15T22:43:51.810Z,55.45
2022-12-15T22:46:22.285Z,53.22
2022-12-15T22:48:52.169Z,51.65
2022-12-15T22:51:20.842Z,60.28
2022-12-15T22:53:48.578Z,52.13
2022-12-15T22:56:25.624Z,51.72
2022-12-15T22:58:57.776Z,54.97
2022-12-15T23:01:26.764Z,54.55
2022-12-15T23:03:55.643Z,49.40
2022-12-15T23:06:24.095Z,56.53
2022-12-15T23:08:55.883Z,52.92
2022-12-15T23:11:41.275Z,56.22
2022-12-15T23:14:11.837Z,53.85
2022-12-15T23:16:39.580Z,54.60
2022-12-15T23:19:08.629Z,58.65
2022-12-15T23:21:37.871Z,64.35
2022-12-15T23:24:05.861Z,57.28
2022-12-15T23:26:34.953Z,56.20
2022-12-15T23:29:02.696Z,60.20
2022-12-15T23:31:30.605Z,50.58
2022-12-15T23:33:58.390Z,52.30
2022-12-15T23:36:26.211Z,49.33
2022-12-15T23:38:55.130Z,52.97
2022-12-15T23:41:22.922Z,54.47
2022-12-15T23:43:52.020Z,56.53
2022-12-15T23:46:19.875Z,54.83
2022-12-15T23:48:47.845Z,52.90
2022-12-15T23:51:17.651Z,57.40
2022-12-15T23:53:48.694Z,56.95
2022-12-15T23:56:18.410Z,55.58
2022-12-15T23:58:48.972Z,53.45
